KBBB/BBB METAR and TAF weather

Enter ICAO airport designator
Station Type Date Time Source
KBBB METAR 2019/05/19 20:15 UTC NOAA

KBBB 192015Z AUTO 07010G21KT 10SM DZ BKN028 OVC034 06/03 A2992 RMK AO2


Station Type Date Time Source
KBBB Decoded METAR 2019/05/19 20:15 UTC NOAA

Benson Municipal, MN, United States (KBBB) 45-19N 095-39W
May 19, 2019 - 04:15 PM EDT / 2019.05.19 2015 UTC
Wind: from the ENE (070 degrees) at 12 MPH (10 KT) gusting to 24 MPH (21 KT):0
Visibility: 10 mile(s):0
Sky conditions: overcast
Weather: drizzle
Temperature: 42 F (6 C)
Dew Point: 37 F (3 C)
Relative Humidity: 81%
Pressure (altimeter): 29.92 in. Hg (1013 hPa)
ob: KBBB 192015Z AUTO 07010G21KT 10SM DZ BKN028 OVC034 06/03 A2992 RMK AO2
cycle: 20

Station Type Date Time Source
KBBB TAF UTC NOAA

Error!

Example: see airport list